Pagrindinis puslapis
METAR-TAF:

METAR-TAF

Oro uostai :

Niamėjus, Nigeris

platuma: 13-29N, ilguma: 002-10E, Aukštis: 223 m

Dabartinis oras

Ataskaita buvo paskelbta 29 minutes, ne 07:00 UTC
Vėjas 4 kt iš Šiaurės Rytų
Temperatūra 20°C
Drėgmė 15%
Slėgis 1015 hPa
Matomumas: 8000 m

METAR: DRRN 140700Z 05004KT 8000 NSC 20/M07 Q1015 NOSIG

Laikas: 08:29 (07:29 UTC)

Prognozė

Ataskaita buvo paskelbta 2 valandos ir 29 minutes, ne 05:00 UTC
Prognozė galioja nuo 14 metu 06 UTC su 15 metu 12 UTC
Vėjas 8 kt iš Rytų
Matomumas: 8000 m
Laikinai
nuo 14 metu 06 UTC su 14 metu 09 UTC
Matomumas: 4000 m
dulkės
Laikinai
nuo 14 metu 09 UTC su 14 metu 14 UTC
Vėjas 20 kt iš Rytų
Matomumas: 3500 m
Dulkes pustymas
Laikinai
nuo 14 metu 17 UTC su 14 metu 20 UTC
Matomumas: 4000 m
dulkės

TAF: DRRN 140500Z 1406/1512 08008KT 8000 NSC TEMPO 1406/1409 4000 DU TEMPO 1409/1414 10020KT 3500 BLDU TEMPO 1417/1420 4000 DU

Orai ataskaitas ir orų prognozės (METAR, TAF).

turimą stotys yra geltonos ir raudonos taškus žemėlapyje.

Perkelti pele per norėdami pamatyti stoties vardą.

Tada spustelėkite, norėdami matyti oro stebėjimo ir prognozės.

Norėdami pakeisti žemėlapį: spustelėkite ant žalios mygtukų su juodo kryžiaus žemyn,; žalią mygtuką su brūkšneliu, jei norite nutolinti; arba žalių rodyklių gretimoms žemėlapius.


METAR-TAF: